Terminal Aerodrome Forecast
Issued by NWS Atlanta, GA

Home | Current Version | Previous Version | Text Only | Print | Product List | Glossary On
Versions: 1 2 3 4 5 6 7 8 9 10 11 12 13 14 15 16 17 18 19 20 21 22 23 24 25 26 27 28 29 30 31 32 33 34 35 36 37
000
FTUS42 KFFC 251738
TAFATL
TAF
KATL 251738Z 2518/2624 10005KT P6SM SCT040 SCT250
     FM260200 13005KT P6SM SCT250
     FM261000 12004KT P6SM SCT015
     FM261400 14006KT P6SM FEW035
     FM261700 15006KT P6SM VCSH SCT045 PROB30 2620/2624 5SM -TSRA
      OVC035CB=

USA.gov is the U.S. government's official web portal to all federal, state and local government web resources and services.